Data for 05/02/2006

Time Sea-Level Adjusted Pressure Absolute Pressure Temperature Relative Humidity Dew Point   
(mb) (inHg) (mb) (inHg) (C) (F) (%) (C) (F)
00:05 1015 29.97 844 24.92 6.4 43.6 47 -4 24.7
00:10 1015 29.97 844 24.92 6.6 43.8 48 -3.6 25.6
00:15 1015 29.97 844 24.92 6.6 43.8 46 -4.1 24.7
00:20 1015 29.97 844 24.92 6.8 44.2 45 -4.4 24.2
00:25 1015 29.97 844 24.92 6.9 44.4 44 -4.4 24.1
00:30 1015 29.97 844 24.92 6.9 44.4 44 -4.6 23.6
00:35 1015 29.97 844 24.92 6.9 44.4 42 -5 23
00:40 1015 29.97 844 24.92 6.9 44.4 42 -5.2 22.6
00:45 1015 29.97 844 24.92 6.9 44.3 44 -4.4 24
00:50 1015 29.97 845 24.95 6.6 43.8 46 -4.3 24.3
00:55 1015 29.97 845 24.95 6.5 43.6 44 -4.9 23.1
01:00 1015 29.97 845 24.95 6.3 43.3 39 -6.6 20.1
01:05 1016 30 845 24.95 6 42.8 39 -6.8 19.8
01:10 1016 30 845 24.95 5.9 42.6 39 -6.9 19.5
01:15 1016 30 845 24.95 5.8 42.4 40 -6.8 19.8
01:20 1016 30 845 24.95 5.7 42.2 40 -6.9 19.7
01:25 1016 30 845 24.95 5.6 42.1 42 -6.4 20.4
01:30 1016 30 845 24.95 5.5 42 42 -6.4 20.5
01:35 1016 30 845 24.95 5.5 41.8 45 -5.5 22.1
01:40 1016 30 845 24.95 5.3 41.5 48 -4.9 23.2
01:45 1016 30 845 24.95 5.1 41.1 49 -4.9 23.2
01:50 1016 30 845 24.95 4.9 40.8 50 -4.8 23.4
01:55 1016 30 845 24.95 4.9 40.8 50 -4.7 23.5
02:00 1016 30 845 24.95 4.9 40.8 50 -4.7 23.5
02:05 1016 30 845 24.95 4.9 40.8 50 -4.8 23.4
02:10 1016 30 845 24.95 4.8 40.6 49 -5 22.9
02:15 1016 30 846 24.98 4.5 40.1 52 -4.5 23.9
02:20 1016 30 846 24.98 4.2 39.5 51 -5.1 22.8
02:25 1016 30 846 24.98 4.2 39.6 49 -5.6 21.9
02:30 1016 30 846 24.98 4.4 39.9 49 -5.3 22.5
02:35 1016 30 846 24.98 4.2 39.6 50 -5.3 22.5
02:40 1016 30 846 24.98 4.2 39.5 49 -5.6 22
02:45 1016 30 846 24.98 4.2 39.5 50 -5.3 22.5
02:50 1016 30 846 24.98 4 39.1 52 -5.1 22.8
02:55 1016 30 846 24.98 4 39.2 51 -5.3 22.4
03:00 1016 30 846 24.98 4 39.2 51 -5.2 22.6
03:05 1016 30 846 24.98 3.9 39 48 -6.1 21
03:10 1016 30 846 24.98 4.1 39.4 46 -6.6 20.1
03:15 1016 30 846 24.98 4.1 39.4 46 -6.6 20.2
03:20 1016 30 846 24.98 4.2 39.6 45 -6.8 19.8
03:25 1016 30 846 24.98 4.3 39.7 42 -7.5 18.5
03:30 1017 30.03 846 24.98 4.2 39.6 41 -8 17.6
03:35 1017 30.03 846 24.98 4 39.3 41 -8 17.7
03:40 1017 30.03 846 24.98 3.7 38.7 42 -8 17.5
03:45 1017 30.03 846 24.98 3.6 38.5 43 -7.9 17.7
03:50 1017 30.03 846 24.98 3.4 38.2 43 -8 17.5
03:55 1017 30.03 846 24.98 3.3 38 41 -8.6 16.6
04:00 1017 30.03 846 24.98 3.1 37.6 40 -9.3 15.2
04:05 1017 30.03 846 24.98 3 37.4 40 -9.3 15.2
04:10 1017 30.03 846 24.98 2.9 37.3 41 -9.1 15.7
04:15 1017 30.03 846 24.98 2.8 37.1 41 -9 15.7
04:20 1017 30.03 847 25.01 2.8 37 41 -9.2 15.4
04:25 1017 30.03 847 25.01 2.7 36.9 41 -9.1 15.5
04:30 1017 30.03 847 25.01 2.7 36.8 42 -9 15.8
04:35 1017 30.03 847 25.01 2.7 36.8 42 -9 15.7
04:40 1018 30.06 847 25.01 2.6 36.6 43 -8.8 16.2
04:45 1018 30.06 847 25.01 2.5 36.5 44 -8.5 16.6
04:50 1018 30.06 847 25.01 2.5 36.6 44 -8.5 16.7
04:55 1018 30.06 847 25.01 2.4 36.4 45 -8.4 16.9
05:00 1018 30.06 847 25.01 2.4 36.4 45 -8.4 16.9
05:05 1018 30.06 847 25.01 2.4 36.3 44 -8.6 16.5
05:10 1018 30.06 847 25.01 2.3 36.2 44 -8.6 16.5
05:15 1018 30.06 847 25.01 2.3 36.1 44 -8.8 16.2
05:20 1018 30.06 847 25.01 2.2 36 44 -8.8 16.2
05:25 1018 30.06 847 25.01 2.1 35.8 43 -9.1 15.6
05:30 1018 30.06 847 25.01 1.9 35.5 41 -10 14
05:35 1018 30.06 847 25.01 1.8 35.3 42 -9.6 14.7
05:40 1018 30.06 848 25.04 1.8 35.2 43 -9.5 14.9
05:45 1018 30.06 848 25.04 1.6 35 42 -10.1 13.8
05:50 1018 30.06 848 25.04 1.5 34.7 42 -10 14.1
05:55 1018 30.06 848 25.04 1.5 34.6 43 -9.9 14.1
06:00 1018 30.06 848 25.04 1.4 34.6 43 -10 14
06:05 1019 30.09 848 25.04 1.4 34.4 43 -9.9 14.2
06:10 1019 30.09 848 25.04 1.2 34.2 45 -9.5 14.8
06:15 1019 30.09 848 25.04 1.2 34.1 46 -9.1 15.7
06:20 1019 30.09 848 25.04 1.1 34.1 48 -8.6 16.4
06:25 1019 30.09 848 25.04 1.1 34 49 -8.6 16.5
06:30 1019 30.09 848 25.04 1 33.8 47 -9 15.8
06:35 1019 30.09 848 25.04 1 33.8 45 -9.7 14.5
06:40 1019 30.09 848 25.04 1 33.8 42 -10.5 13.1
06:45 1019 30.09 848 25.04 1.1 34 42 -10.4 13.2
06:50 1019 30.09 848 25.04 1.2 34.1 40 -10.9 12.4
06:55 1019 30.09 849 25.07 1.1 34 40 -11 12.2
07:00 1019 30.09 849 25.07 1.2 34.1 39 -11.2 11.9
07:05 1019 30.09 849 25.07 1.2 34.2 39 -11.2 11.9
07:10 1019 30.09 848 25.04 1 33.8 40 -11.2 11.8
07:15 1019 30.09 849 25.07 1.2 34.2 39 -11.1 12
07:20 1019 30.09 849 25.07 1.5 34.8 37 -11.5 11.2
07:25 1020 30.12 849 25.07 1.7 35 38 -11.2 11.8
07:30 1020 30.12 849 25.07 2 35.5 34 -12.3 9.8
07:35 1020 30.12 849 25.07 2.2 35.9 34 -12.3 9.9
07:40 1020 30.12 849 25.07 2.2 36 34 -12.2 10.1
07:45 1020 30.12 849 25.07 2.5 36.5 34 -12 10.4
07:50 1020 30.12 849 25.07 2.6 36.7 33 -12.1 10.3
07:55 1020 30.12 849 25.07 2.7 36.8 32 -12.3 9.9
08:00 1020 30.12 849 25.07 2.9 37.2 32 -12.1 10.2
08:05 1020 30.12 849 25.07 3 37.3 33 -11.9 10.6
08:10 1020 30.12 849 25.07 3.2 37.7 33 -11.7 11
08:15 1020 30.12 849 25.07 3.4 38.1 31 -12.2 10
08:20 1020 30.12 849 25.07 3.2 37.8 31 -12.2 10.1
08:25 1020 30.12 849 25.07 3.1 37.6 32 -12.1 10.2
08:30 1020 30.12 850 25.1 3.4 38.1 32 -11.8 10.8
08:35 1021 30.15 850 25.1 3.9 39 30 -12.2 10.1
08:40 1021 30.15 850 25.1 3.8 38.8 30 -12.3 9.9
08:45 1021 30.15 850 25.1 3.9 39 30 -12.1 10.1
08:50 1021 30.15 850 25.1 4.1 39.4 29 -12.3 9.9
08:55 1021 30.15 850 25.1 4.2 39.6 29 -12.2 10
09:00 1021 30.15 850 25.1 4.1 39.5 29 -12.6 9.4
09:05 1021 30.15 850 25.1 3.8 38.8 30 -12.5 9.6
09:10 1021 30.15 850 25.1 3.6 38.5 30 -12.2 10
09:15 1021 30.15 850 25.1 3.6 38.4 30 -12.5 9.5
09:20 1021 30.15 850 25.1 4 39.1 29 -12.5 9.5
09:25 1021 30.15 850 25.1 4.7 40.5 28 -12.1 10.2
09:30 1021 30.15 850 25.1 5.2 41.3 27 -12.2 10.1
09:35 1021 30.15 850 25.1 5.8 42.4 29 -11.2 11.9
09:40 1021 30.15 850 25.1 5.9 42.5 27 -11.6 11.1
09:45 1021 30.15 850 25.1 5.2 41.4 28 -11.9 10.5
09:50 1021 30.15 850 25.1 4.8 40.6 29 -11.8 10.8
09:55 1021 30.15 850 25.1 4.6 40.3 29 -11.8 10.8
10:00 1021 30.15 850 25.1 4.6 40.3 29 -12.1 10.1
10:05 1021 30.15 850 25.1 4.6 40.4 30 -11.5 11.4
10:10 1021 30.15 850 25.1 5.1 41.3 29 -11.7 11
10:15 1021 30.15 850 25.1 5.2 41.4 29 -11.3 11.7
10:20 1021 30.15 850 25.1 5 41.1 29 -11.5 11.2
10:25 1021 30.15 850 25.1 5.1 41.2 30 -11 12.2
10:30 1021 30.15 850 25.1 4.6 40.2 31 -11.2 11.8
10:35 1021 30.15 850 25.1 4.3 39.8 31 -11.3 11.6
10:40 1021 30.15 850 25.1 4.2 39.6 31 -11.4 11.6
10:45 1021 30.15 850 25.1 4.6 40.2 31 -11.2 11.8
10:50 1021 30.15 850 25.1 4.8 40.6 30 -11.5 11.3
10:55 1021 30.15 850 25.1 5.7 42.2 29 -11.2 11.8
11:00 1021 30.15 850 25.1 5.7 42.2 29 -10.9 12.3
11:05 1021 30.15 850 25.1 5.8 42.4 28 -11.3 11.6
11:10 1021 30.15 850 25.1 5.1 41.2 30 -10.9 12.3
11:15 1021 30.15 850 25.1 5.5 41.9 29 -11.4 11.5
11:20 1021 30.15 850 25.1 5.5 41.8 30 -10.9 12.4
11:25 1021 30.15 850 25.1 6.8 44.3 27 -10.7 12.7
11:30 1021 30.15 850 25.1 7.2 45 27 -10.7 12.7
11:35 1021 30.15 850 25.1 6.8 44.3 30 -9.7 14.5
11:40 1021 30.15 850 25.1 5.5 41.8 32 -10.1 13.9
11:45 1021 30.15 850 25.1 5.1 41.2 33 -10 14.1
11:50 1021 30.15 850 25.1 5.6 42.1 31 -10.2 13.6
11:55 1021 30.15 850 25.1 5.5 42 30 -10.8 12.5
12:00 1021 30.15 850 25.1 6.4 43.6 28 -10.7 12.8
12:05 1021 30.15 850 25.1 6.3 43.4 30 -9.8 14.3
12:10 1021 30.15 850 25.1 6.7 44 29 -10.3 13.5
12:15 1021 30.15 850 25.1 7.6 45.6 28 -9.8 14.3
12:20 1021 30.15 850 25.1 7.5 45.4 28 -10 14
12:25 1021 30.15 850 25.1 7.3 45.1 29 -9.4 15
12:30 1021 30.15 850 25.1 7.4 45.3 29 -9.6 14.8
12:35 1021 30.15 850 25.1 7.1 44.8 29 -9.6 14.7
12:40 1021 30.15 850 25.1 8 46.3 27 -9.9 14.2
12:45 1021 30.15 850 25.1 8 46.3 26 -10.2 13.7
12:50 1021 30.15 850 25.1 8.2 46.8 26 -10.4 13.4
12:55 1021 30.15 850 25.1 8 46.5 27 -9.9 14.2
13:00 1021 30.15 850 25.1 8 46.4 26 -10.2 13.7
13:05 1021 30.15 850 25.1 8.1 46.5 29 -9.1 15.6
13:10 1020 30.12 850 25.1 8.9 47.9 25 -10 13.9
13:15 1020 30.12 850 25.1 8.8 47.8 27 -9.1 15.6
13:20 1020 30.12 850 25.1 8.4 47 27 -9.4 15.1
13:25 1020 30.12 849 25.07 8.4 47.1 26 -9.8 14.4
13:30 1020 30.12 849 25.07 8 46.4 27 -9.9 14.2
13:35 1020 30.12 849 25.07 7.9 46.1 28 -9.7 14.5
13:40 1020 30.12 849 25.07 7.6 45.7 27 -10 13.9
13:45 1020 30.12 849 25.07 7.7 45.8 27 -10.1 13.7
13:50 1020 30.12 849 25.07 8.3 47 26 -9.9 14.1
13:55 1020 30.12 849 25.07 8.2 46.7 28 -9.4 15.1
14:00 1020 30.12 849 25.07 8.2 46.8 26 -10.3 13.5
14:05 1020 30.12 849 25.07 8.6 47.5 26 -9.7 14.5
14:10 1020 30.12 849 25.07 9.1 48.3 26 -9.4 15
14:15 1020 30.12 849 25.07 9.4 49 26 -9 15.7
14:20 1020 30.12 849 25.07 9.7 49.4 25 -9.3 15.3
14:25 1020 30.12 849 25.07 8.7 47.7 27 -9.1 15.6
14:30 1020 30.12 849 25.07 9.2 48.6 25 -9.6 14.7
14:35 1020 30.12 849 25.07 9.5 49.1 25 -9.5 14.9
14:40 1020 30.12 849 25.07 9.4 49 26 -9.4 15.1
14:45 1020 30.12 849 25.07 9.7 49.5 25 -9.5 14.9
14:50 1020 30.12 849 25.07 9.8 49.7 25 -9.1 15.7
14:55 1020 30.12 849 25.07 9.2 48.6 26 -9.1 15.6
15:00 1020 30.12 849 25.07 9.1 48.3 26 -9.7 14.6
15:05 1020 30.12 849 25.07 9.5 49.1 27 -8.8 16.2
15:10 1020 30.12 849 25.07 9.6 49.2 25 -9.4 15.1
15:15 1020 30.12 849 25.07 9.8 49.7 26 -8.9 16
15:20 1020 30.12 849 25.07 10.1 50.1 25 -8.9 15.9
15:25 1020 30.12 849 25.07 10.4 50.7 25 -8.9 16
15:30 1020 30.12 849 25.07 10.5 50.8 25 -9 15.9
15:35 1020 30.12 849 25.07 10.3 50.6 25 -8.7 16.4
15:40 1020 30.12 849 25.07 10.6 51.1 24 -9.3 15.3
15:45 1020 30.12 849 25.07 11 51.8 23 -9.5 14.8
15:50 1020 30.12 849 25.07 11 51.7 25 -8.6 16.6
15:55 1020 30.12 849 25.07 10.5 50.9 24 -9.3 15.2
16:00 1020 30.12 849 25.07 10.8 51.4 24 -9.1 15.6
16:05 1020 30.12 849 25.07 11.2 52.1 23 -9 15.9
16:10 1020 30.12 849 25.07 10.7 51.2 24 -9 15.9
16:15 1020 30.12 849 25.07 10.6 51.2 25 -8.7 16.4
16:20 1020 30.12 849 25.07 10.3 50.5 25 -8.8 16.1
16:25 1020 30.12 849 25.07 10.5 50.9 24 -9.1 15.7
16:30 1020 30.12 849 25.07 10.2 50.4 24 -9.6 14.7
16:35 1020 30.12 849 25.07 10.4 50.6 24 -9.1 15.5
16:40 1020 30.12 849 25.07 10.7 51.3 24 -8.9 16.1
16:45 1019 30.09 849 25.07 11.2 52.2 22 -9.5 15
16:50 1019 30.09 849 25.07 10.6 51 24 -9.1 15.7
16:55 1019 30.09 849 25.07 10.1 50.1 25 -8.9 15.9
17:00 1020 30.12 849 25.07 10.6 51 24 -9.2 15.4
17:05 1020 30.12 849 25.07 11 51.8 24 -8.6 16.6
17:10 1020 30.12 849 25.07 10.8 51.5 24 -8.8 16.1
17:15 1020 30.12 849 25.07 10.7 51.3 24 -8.8 16.2
17:20 1020 30.12 849 25.07 11 51.9 24 -8.8 16.1
17:25 1020 30.12 849 25.07 10.8 51.5 23 -9.3 15.3
17:30 1020 30.12 849 25.07 10.7 51.2 24 -8.9 16
17:35 1020 30.12 849 25.07 10.9 51.7 23 -9.1 15.5
17:40 1020 30.12 849 25.07 11 51.8 23 -9.3 15.2
17:45 1020 30.12 849 25.07 10.9 51.7 23 -9.5 14.9
17:50 1020 30.12 849 25.07 10.7 51.3 23 -9.7 14.6
17:55 1020 30.12 849 25.07 10.6 51.1 23 -9.8 14.3
18:00 1020 30.12 849 25.07 10.8 51.4 23 -9.8 14.4
18:05 1020 30.12 849 25.07 10.8 51.4 22 -9.9 14.1
18:10 1020 30.12 849 25.07 10.5 51 23 -10 14
18:15 1020 30.12 849 25.07 10.9 51.5 22 -10 14.1
18:20 1020 30.12 849 25.07 10.5 50.8 21 -10.8 12.5
18:25 1020 30.12 849 25.07 10.3 50.6 22 -10.4 13.2
18:30 1020 30.12 849 25.07 10.6 51.1 22 -10.3 13.5
18:35 1020 30.12 849 25.07 10.7 51.2 22 -10.1 13.8
18:40 1020 30.12 849 25.07 10.5 50.9 22 -10.6 13
18:45 1020 30.12 849 25.07 10.4 50.8 22 -10.5 13.1
18:50 1020 30.12 849 25.07 10.2 50.3 23 -10.3 13.5
18:55 1020 30.12 849 25.07 9.9 49.9 23 -10.3 13.5
19:00 1020 30.12 849 25.07 9.9 49.7 22 -10.8 12.5
19:05 1020 30.12 849 25.07 9.7 49.4 26 -8.9 16
19:10 1020 30.12 849 25.07 9.4 49 26 -9.1 15.6
19:15 1020 30.12 849 25.07 9.3 48.8 27 -8.9 15.9
19:20 1020 30.12 849 25.07 9.2 48.6 26 -9.2 15.5
19:25 1020 30.12 849 25.07 9.2 48.5 27 -9.1 15.7
19:30 1020 30.12 849 25.07 9.2 48.6 26 -9.2 15.4
19:35 1020 30.12 849 25.07 9.2 48.6 26 -9.3 15.2
19:40 1020 30.12 849 25.07 9.3 48.7 26 -9.2 15.5
19:45 1020 30.12 849 25.07 9.2 48.5 26 -9.2 15.4
19:50 1020 30.12 849 25.07 9.1 48.3 26 -9.3 15.3
19:55 1020 30.12 849 25.07 9 48.3 26 -9.2 15.4
20:00 1020 30.12 849 25.07 8.9 48.1 27 -9.2 15.5
20:05 1020 30.12 849 25.07 8.8 47.9 27 -9.1 15.6
20:10 1020 30.12 849 25.07 8.6 47.5 28 -9.1 15.6
20:15 1020 30.12 849 25.07 8.5 47.3 28 -9.2 15.5
20:20 1020 30.12 849 25.07 8.5 47.3 28 -9.1 15.7
20:25 1020 30.12 849 25.07 8.4 47 28 -8.9 15.9
20:30 1020 30.12 849 25.07 8.3 46.9 29 -8.7 16.4
20:35 1020 30.12 850 25.1 8 46.5 30 -8.5 16.6
20:40 1020 30.12 850 25.1 7.9 46.2 31 -8.2 17.3
20:45 1020 30.12 850 25.1 7.7 45.9 32 -8 17.5
20:50 1020 30.12 850 25.1 7.5 45.6 32 -7.9 17.7
20:55 1020 30.12 850 25.1 7.5 45.5 33 -7.8 18
21:00 1021 30.15 850 25.1 7.5 45.4 33 -7.7 18.2
21:05 1021 30.15 850 25.1 7.4 45.2 34 -7.6 18.4
21:10 1021 30.15 850 25.1 7.2 45 34 -7.5 18.5
21:15 1021 30.15 850 25.1 7 44.5 35 -7.6 18.4
21:20 1021 30.15 850 25.1 6.8 44.3 35 -7.8 18
21:25 1021 30.15 850 25.1 6.9 44.3 34 -7.8 18
21:30 1021 30.15 850 25.1 6.8 44.2 34 -8 17.5
21:35 1021 30.15 850 25.1 6.7 44.1 35 -7.8 17.9
21:40 1021 30.15 850 25.1 6.4 43.5 38 -6.8 19.8
21:45 1021 30.15 850 25.1 5.6 42.1 41 -6.8 19.8
21:50 1021 30.15 850 25.1 5.2 41.4 42 -6.6 20.1
21:55 1021 30.15 850 25.1 4.9 40.9 43 -6.8 19.8
22:00 1021 30.15 850 25.1 4.5 40.2 45 -6.5 20.3
22:05 1021 30.15 851 25.13 4.1 39.4 46 -6.5 20.3
22:10 1021 30.15 851 25.13 4.1 39.4 45 -6.7 20
22:15 1021 30.15 851 25.13 4 39.2 45 -6.8 19.8
22:20 1021 30.15 851 25.13 4.2 39.5 44 -7.1 19.3
22:25 1022 30.18 851 25.13 4.3 39.7 43 -7.3 18.9
22:30 1022 30.18 851 25.13 4.1 39.5 45 -6.9 19.7
22:35 1022 30.18 851 25.13 3.8 38.8 46 -6.8 19.8
22:40 1022 30.18 851 25.13 3.8 38.9 46 -6.9 19.6
22:45 1022 30.18 851 25.13 3.9 39 45 -7 19.3
22:50 1022 30.18 851 25.13 4 39.1 45 -7 19.4
22:55 1022 30.18 851 25.13 3.6 38.4 45 -7.2 19.1
23:00 1022 30.18 851 25.13 3.4 38.1 47 -6.8 19.8
23:05 1022 30.18 851 25.13 3.1 37.5 48 -6.8 19.7
23:10 1022 30.18 851 25.13 3.2 37.7 48 -6.8 19.8
23:15 1021 30.15 851 25.13 3.1 37.6 49 -6.5 20.3
23:20 1021 30.15 851 25.13 3 37.4 50 -6.5 20.2
23:25 1022 30.18 851 25.13 2.7 36.8 51 -6.4 20.5
23:30 1022 30.18 851 25.13 2.8 37.1 51 -6.4 20.4
23:35 1022 30.18 851 25.13 2.9 37.3 51 -6.3 20.6
23:40 1022 30.18 851 25.13 2.7 36.9 52 -6.3 20.7
23:45 1022 30.18 851 25.13 2 35.6 57 -5.6 21.9
23:50 1022 30.18 851 25.13 1.6 34.8 55 -6.6 20.2
23:55 1022 30.18 851 25.13 1.7 35.1 55 -6.5 20.4
24:00 1022 30.18 851 25.13 1.9 35.5 51 -7.1 19.2